Time;durP1;ratioP1;P1;durP2;ratioP2;P2;SDS_P1;SDS_P2;PMS_P1;PMS_P2;Temp;Humidity;BMP_temperature;BMP_pressure;BME280_temperature;BME280_humidity;BME280_pressure;Samples;Min_cycle;Max_cycle;Signal;HPM_P1;HPM_P2
2023/05/09 00:01:17;;;;;;;18.20;16.10;;;16.60;99.90;;;;;;4993475;28;20231;-67
2023/05/09 00:03:43;;;;;;;19.50;15.90;;;16.50;99.90;;;;;;4993901;28;20165;-67
2023/05/09 00:06:09;;;;;;;18.03;16.23;;;16.60;99.90;;;;;;4994118;28;20199;-67
2023/05/09 00:08:35;;;;;;;17.70;15.93;;;16.60;99.90;;;;;;4993878;28;20172;-67
2023/05/09 00:11:01;;;;;;;18.87;16.93;;;16.60;99.90;;;;;;4993678;28;20247;-68
2023/05/09 00:13:27;;;;;;;16.70;15.20;;;16.60;99.90;;;;;;4993845;28;20573;-67
2023/05/09 00:15:52;;;;;;;18.83;16.97;;;16.50;99.90;;;;;;4997296;28;20410;-67
2023/05/09 00:18:22;;;;;;;17.93;14.90;;;16.60;99.90;;;;;;5012897;28;20416;-67
2023/05/09 00:20:49;;;;;;;20.80;18.37;;;16.50;99.90;;;;;;5013963;28;20184;-67
2023/05/09 00:23:15;;;;;;;18.10;16.40;;;16.50;99.90;;;;;;4995487;28;20409;-68
2023/05/09 00:25:41;;;;;;;17.20;15.40;;;16.50;99.90;;;;;;4995579;28;20453;-68
2023/05/09 00:28:07;;;;;;;17.67;15.90;;;16.60;99.90;;;;;;5013120;28;20409;-68
2023/05/09 00:30:32;;;;;;;17.40;15.77;;;16.70;99.90;;;;;;5012931;28;20190;-68
2023/05/09 00:32:58;;;;;;;19.40;17.50;;;16.70;99.90;;;;;;5012894;28;20175;-68
2023/05/09 00:35:23;;;;;;;20.50;18.57;;;16.70;99.90;;;;;;5013167;28;20168;-68
2023/05/09 00:37:49;;;;;;;16.30;14.60;;;16.80;99.90;;;;;;5012823;28;20251;-68
2023/05/09 00:40:14;;;;;;;18.97;16.97;;;16.80;99.90;;;;;;5012947;28;20196;-68
2023/05/09 00:42:40;;;;;;;17.57;15.83;;;16.70;99.90;;;;;;5013347;28;20185;-68
2023/05/09 00:45:06;;;;;;;18.03;16.30;;;16.80;99.90;;;;;;5013474;28;20199;-68
2023/05/09 00:47:33;;;;;;;22.50;20.17;;;16.80;99.90;;;;;;5012394;28;20695;-68
2023/05/09 00:49:59;;;;;;;27.27;24.40;;;16.80;99.90;;;;;;5012879;28;20928;-67
2023/05/09 00:52:25;;;;;;;26.63;18.43;;;16.70;99.90;;;;;;5013299;28;20509;-67
2023/05/09 00:54:51;;;;;;;21.67;19.50;;;16.70;99.90;;;;;;5012990;28;20421;-66
2023/05/09 00:57:17;;;;;;;21.37;17.93;;;16.70;99.90;;;;;;5013026;28;20763;-67
2023/05/09 00:59:43;;;;;;;18.90;16.90;;;16.70;99.90;;;;;;5013506;28;20445;-67
2023/05/09 01:02:09;;;;;;;25.77;22.07;;;16.60;99.90;;;;;;5012460;28;20203;-67
2023/05/09 01:04:34;;;;;;;25.50;22.70;;;16.50;99.90;;;;;;5013285;28;20553;-67
2023/05/09 01:07:28;;;;;;;25.97;23.20;;;16.50;99.90;;;;;;5012777;28;20188;-67
2023/05/09 01:10:30;;;;;;;24.27;21.67;;;16.40;99.90;;;;;;5009992;28;20257;-67
2023/05/09 01:13:12;;;;;;;27.80;24.90;;;16.40;99.90;;;;;;5013249;28;20410;-67
2023/05/09 01:16:07;;;;;;;20.30;18.23;;;16.20;99.90;;;;;;5012486;28;20765;-67
2023/05/09 01:18:43;;;;;;;28.13;23.43;;;16.10;99.90;;;;;;5012604;28;20397;-67
2023/05/09 01:21:28;;;;;;;28.37;23.80;;;16.10;99.90;;;;;;5013281;28;20418;-67
2023/05/09 01:24:28;;;;;;;34.00;29.07;;;15.90;99.90;;;;;;5012734;28;20394;-67
2023/05/09 01:27:12;;;;;;;24.80;21.67;;;15.90;99.90;;;;;;4929973;28;20882;-67
2023/05/09 01:29:50;;;;;;;23.23;19.87;;;16.00;99.90;;;;;;5012223;28;20433;-68
2023/05/09 01:32:23;;;;;;;29.40;25.77;;;16.00;99.90;;;;;;5014522;28;20757;-67
2023/05/09 01:34:51;;;;;;;24.53;22.00;;;16.00;99.90;;;;;;4998538;28;20461;-67
2023/05/09 01:37:21;;;;;;;27.63;24.63;;;16.00;99.90;;;;;;5015498;28;20421;-68
2023/05/09 01:39:50;;;;;;;26.47;21.67;;;16.10;99.90;;;;;;5015287;28;20473;-67
2023/05/09 01:42:20;;;;;;;28.53;24.77;;;16.10;99.90;;;;;;5016441;28;20403;-68
2023/05/09 01:44:46;;;;;;;25.50;23.00;;;16.10;99.90;;;;;;5015914;28;20915;-68
2023/05/09 01:47:15;;;;;;;23.70;21.30;;;16.20;99.90;;;;;;5014466;28;20452;-68
2023/05/09 01:49:41;;;;;;;25.27;22.50;;;16.10;99.90;;;;;;5014052;28;20448;-68
2023/05/09 01:52:10;;;;;;;27.37;24.47;;;16.10;99.90;;;;;;5012391;28;20492;-67
2023/05/09 01:54:37;;;;;;;25.60;22.57;;;16.00;99.90;;;;;;5015694;28;20509;-67
2023/05/09 01:57:03;;;;;;;28.30;22.53;;;16.00;99.90;;;;;;5015632;28;20789;-67
2023/05/09 01:59:32;;;;;;;29.40;25.23;;;15.90;99.90;;;;;;5015735;28;20456;-67
2023/05/09 02:01:58;;;;;;;29.37;23.77;;;15.90;99.90;;;;;;5015273;28;20493;-67
2023/05/09 02:04:24;;;;;;;25.33;21.90;;;15.90;99.90;;;;;;5015453;28;20896;-67
2023/05/09 02:06:50;;;;;;;27.83;22.73;;;15.80;99.90;;;;;;5015403;28;20477;-68
2023/05/09 02:09:18;;;;;;;25.47;22.77;;;15.70;99.90;;;;;;5015381;28;20456;-67
2023/05/09 02:11:43;;;;;;;24.20;21.47;;;15.60;99.90;;;;;;5015350;28;20399;-67
2023/05/09 02:14:09;;;;;;;24.13;21.53;;;15.60;99.90;;;;;;5015306;28;20890;-67
2023/05/09 02:16:35;;;;;;;22.57;20.17;;;15.60;99.90;;;;;;5015000;28;20269;-67
2023/05/09 02:19:01;;;;;;;24.63;22.00;;;15.60;99.90;;;;;;5015624;28;20305;-67
2023/05/09 02:21:27;;;;;;;26.40;23.57;;;15.70;99.90;;;;;;5015301;28;20414;-72
2023/05/09 02:23:52;;;;;;;24.80;22.40;;;15.80;99.90;;;;;;5015226;28;20175;-72
2023/05/09 02:26:18;;;;;;;26.23;21.07;;;15.80;99.90;;;;;;5015114;28;20195;-72
2023/05/09 02:28:45;;;;;;;24.13;21.73;;;15.80;99.90;;;;;;5015218;28;20192;-72
2023/05/09 02:31:12;;;;;;;27.37;23.43;;;15.90;99.90;;;;;;4997296;28;20183;-72
2023/05/09 02:33:40;;;;;;;24.73;21.77;;;15.80;99.90;;;;;;5014851;28;20472;-71
2023/05/09 02:36:07;;;;;;;26.67;23.20;;;15.80;99.90;;;;;;5014677;28;20807;-72
2023/05/09 02:38:33;;;;;;;26.43;22.30;;;15.80;99.90;;;;;;5014996;28;20423;-72
2023/05/09 02:40:59;;;;;;;22.13;19.90;;;15.90;99.90;;;;;;5015115;28;20505;-72
2023/05/09 02:43:24;;;;;;;26.13;23.30;;;15.90;99.90;;;;;;5014687;28;20496;-71
2023/05/09 02:45:50;;;;;;;27.17;24.30;;;15.90;99.90;;;;;;5014633;28;20196;-72
2023/05/09 02:48:16;;;;;;;27.80;23.30;;;15.90;99.90;;;;;;5014359;28;20622;-71
2023/05/09 02:50:44;;;;;;;22.00;19.77;;;15.90;99.90;;;;;;5014668;28;20199;-71
2023/05/09 02:53:10;;;;;;;27.30;24.10;;;16.00;99.90;;;;;;5014523;28;20178;-71
2023/05/09 02:55:36;;;;;;;24.63;21.13;;;16.00;99.90;;;;;;5014542;28;20418;-71
2023/05/09 02:58:01;;;;;;;26.83;24.23;;;15.90;99.90;;;;;;5014501;28;20186;-72
2023/05/09 03:00:27;;;;;;;23.93;21.33;;;15.90;99.90;;;;;;5014442;28;20208;-72
2023/05/09 03:02:53;;;;;;;25.87;23.07;;;15.80;99.90;;;;;;5013930;28;20177;-71
2023/05/09 03:05:19;;;;;;;27.97;21.13;;;15.80;99.90;;;;;;5014236;28;20257;-71
2023/05/09 03:07:44;;;;;;;25.97;23.17;;;15.80;99.90;;;;;;5014928;28;20421;-71
2023/05/09 03:10:11;;;;;;;28.53;23.27;;;15.80;99.90;;;;;;5014198;28;20466;-71
2023/05/09 03:12:37;;;;;;;29.60;25.93;;;15.70;99.90;;;;;;5014450;28;20659;-73
2023/05/09 03:15:07;;;;;;;24.30;21.70;;;15.60;99.90;;;;;;5014513;28;20406;-72
2023/05/09 03:17:32;;;;;;;23.33;20.97;;;15.60;99.90;;;;;;5013642;28;20840;-73
2023/05/09 03:19:58;;;;;;;28.07;22.70;;;15.60;99.90;;;;;;5014169;28;20438;-72
2023/05/09 03:22:23;;;;;;;25.43;22.37;;;15.60;99.90;;;;;;5014055;28;20173;-72
2023/05/09 03:24:49;;;;;;;22.40;20.00;;;15.70;99.90;;;;;;5010057;28;20175;-72
2023/05/09 03:27:14;;;;;;;25.27;21.57;;;15.80;99.90;;;;;;4994232;28;20177;-72
2023/05/09 03:29:40;;;;;;;29.07;25.83;;;15.80;99.90;;;;;;4994210;28;20194;-72
2023/05/09 03:32:06;;;;;;;24.10;21.60;;;15.80;99.90;;;;;;4993887;28;20169;-72
2023/05/09 03:34:31;;;;;;;24.00;21.50;;;15.80;99.90;;;;;;4994314;28;20177;-72
2023/05/09 03:36:57;;;;;;;26.73;23.90;;;15.80;99.90;;;;;;4976916;28;20191;-72
2023/05/09 03:39:23;;;;;;;27.03;21.97;;;15.70;99.90;;;;;;4994019;28;20206;-72
2023/05/09 03:41:48;;;;;;;28.07;25.13;;;15.80;99.90;;;;;;5006485;28;20435;-71
2023/05/09 03:44:14;;;;;;;28.23;24.40;;;15.80;99.90;;;;;;5013646;28;20661;-71
2023/05/09 03:46:40;;;;;;;29.50;26.37;;;15.70;99.90;;;;;;5012578;28;20228;-71
2023/05/09 03:49:05;;;;;;;32.43;28.47;;;15.70;99.90;;;;;;5013218;28;20619;-72
2023/05/09 03:51:31;;;;;;;27.20;23.73;;;15.70;99.90;;;;;;5013606;28;20523;-72
2023/05/09 03:53:57;;;;;;;28.70;23.00;;;15.80;99.90;;;;;;5013217;28;20511;-71
2023/05/09 03:56:22;;;;;;;24.97;22.37;;;15.70;99.90;;;;;;4995930;28;20173;-71
2023/05/09 03:58:48;;;;;;;26.70;23.90;;;15.70;99.90;;;;;;5004669;28;20287;-72
2023/05/09 04:01:14;;;;;;;24.70;22.10;;;15.70;99.90;;;;;;4992344;28;20189;-71
2023/05/09 04:03:40;;;;;;;33.93;27.77;;;15.70;99.90;;;;;;4993816;28;20189;-72
2023/05/09 04:06:06;;;;;;;26.27;23.57;;;15.70;99.90;;;;;;4993895;28;20495;-72
2023/05/09 04:08:32;;;;;;;31.03;25.53;;;15.70;99.90;;;;;;4992419;28;20422;-72
2023/05/09 04:10:57;;;;;;;30.93;27.60;;;15.70;99.90;;;;;;4994267;28;20608;-70
2023/05/09 04:13:23;;;;;;;29.77;26.50;;;15.70;99.90;;;;;;4993328;28;20172;-72
2023/05/09 04:15:49;;;;;;;26.13;23.30;;;15.70;99.90;;;;;;4996858;28;20183;-71
2023/05/09 04:18:15;;;;;;;24.23;21.67;;;15.70;99.90;;;;;;5013145;28;20210;-72
2023/05/09 04:20:40;;;;;;;25.67;22.97;;;15.70;99.90;;;;;;5013441;28;20438;-71
2023/05/09 04:23:06;;;;;;;27.63;23.60;;;15.60;99.90;;;;;;5013306;28;20177;-72
2023/05/09 04:25:33;;;;;;;29.47;26.47;;;15.60;99.90;;;;;;5013251;28;20218;-72
2023/05/09 04:27:58;;;;;;;26.50;23.37;;;15.70;99.90;;;;;;5013574;28;20231;-72
2023/05/09 04:30:25;;;;;;;27.03;23.67;;;15.70;99.90;;;;;;5013529;28;20433;-72
2023/05/09 04:32:52;;;;;;;26.40;22.20;;;15.70;99.90;;;;;;5012874;28;20179;-72
2023/05/09 04:35:18;;;;;;;33.27;25.67;;;15.70;99.90;;;;;;5013101;28;20516;-71
2023/05/09 04:37:43;;;;;;;28.00;23.73;;;15.70;99.90;;;;;;5013165;28;20435;-72
2023/05/09 04:40:10;;;;;;;25.23;22.50;;;15.80;99.90;;;;;;5027592;23;20287;-74
2023/05/09 04:42:36;;;;;;;26.93;23.53;;;15.70;99.90;;;;;;5012582;28;20638;-73
2023/05/09 04:45:02;;;;;;;25.20;22.50;;;15.70;99.90;;;;;;4995081;28;20416;-73
2023/05/09 04:47:28;;;;;;;23.50;21.07;;;15.80;99.90;;;;;;5029192;28;20422;-73
2023/05/09 04:49:53;;;;;;;25.00;22.50;;;15.90;99.90;;;;;;5032499;28;20452;-72
2023/05/09 04:52:19;;;;;;;23.90;21.30;;;16.00;99.90;;;;;;5032535;28;20255;-73
2023/05/09 04:54:44;;;;;;;24.13;20.93;;;16.10;99.90;;;;;;5032602;28;20176;-74
2023/05/09 04:57:10;;;;;;;22.93;20.63;;;16.20;99.90;;;;;;5032659;28;20174;-74
2023/05/09 04:59:36;;;;;;;24.13;21.73;;;16.30;99.90;;;;;;5032558;28;20194;-74
2023/05/09 05:02:02;;;;;;;25.87;22.43;;;16.40;99.90;;;;;;5031991;28;20169;-73
2023/05/09 05:04:28;;;;;;;25.27;22.50;;;16.40;99.90;;;;;;5014833;28;20806;-74
2023/05/09 05:06:53;;;;;;;24.07;21.57;;;16.50;99.90;;;;;;5036514;28;20194;-73
2023/05/09 05:09:20;;;;;;;25.53;22.83;;;16.60;99.90;;;;;;5037237;28;20652;-73
2023/05/09 05:11:46;;;;;;;23.63;20.73;;;16.60;99.90;;;;;;5036789;28;20170;-74
2023/05/09 05:14:11;;;;;;;26.23;23.43;;;16.50;99.90;;;;;;5036383;28;20806;-73
2023/05/09 05:16:37;;;;;;;23.13;20.70;;;16.70;99.90;;;;;;5019942;28;20182;-73
2023/05/09 05:19:02;;;;;;;24.57;22.13;;;16.70;99.90;;;;;;5036718;28;20271;-74
2023/05/09 05:21:28;;;;;;;23.77;21.27;;;16.80;99.90;;;;;;5036609;28;20553;-73
2023/05/09 05:23:53;;;;;;;21.50;19.50;;;16.90;99.90;;;;;;5017825;28;20193;-74
2023/05/09 05:26:19;;;;;;;22.13;19.83;;;17.00;99.90;;;;;;5035866;28;20248;-73
2023/05/09 05:28:45;;;;;;;25.07;22.37;;;16.90;99.90;;;;;;5036009;28;20170;-73
2023/05/09 05:31:11;;;;;;;26.67;23.93;;;16.80;99.90;;;;;;5035411;28;20985;-73
2023/05/09 05:33:36;;;;;;;22.40;20.10;;;16.60;99.90;;;;;;5018051;28;20175;-74
2023/05/09 05:36:02;;;;;;;26.10;23.50;;;16.60;99.90;;;;;;5035971;28;20174;-73
2023/05/09 05:38:28;;;;;;;24.30;21.70;;;16.60;99.90;;;;;;5035537;28;20175;-73
2023/05/09 05:40:53;;;;;;;24.87;22.47;;;16.50;99.90;;;;;;5035750;28;20204;-73
2023/05/09 05:43:19;;;;;;;27.53;23.73;;;16.70;99.90;;;;;;5018246;28;20178;-73
2023/05/09 05:45:44;;;;;;;24.20;21.63;;;16.70;99.90;;;;;;5033944;28;20249;-73
2023/05/09 05:48:10;;;;;;;24.63;22.13;;;16.60;99.90;;;;;;5017254;28;20553;-73
2023/05/09 05:50:36;;;;;;;24.73;22.13;;;16.60;99.90;;;;;;5017559;28;20215;-73
2023/05/09 05:53:01;;;;;;;24.43;22.03;;;16.80;99.90;;;;;;5015807;28;20178;-73
2023/05/09 05:55:27;;;;;;;25.40;22.80;;;17.00;99.90;;;;;;5016193;28;20167;-74
2023/05/09 05:57:53;;;;;;;25.07;22.43;;;17.10;99.90;;;;;;5016029;28;20172;-73
2023/05/09 06:00:19;;;;;;;25.73;23.00;;;17.00;99.90;;;;;;5015048;28;20192;-73
2023/05/09 06:02:46;;;;;;;24.90;21.73;;;16.90;99.90;;;;;;5014875;28;20178;-73
2023/05/09 06:05:12;;;;;;;23.63;21.23;;;16.90;99.90;;;;;;5015554;28;20411;-74
2023/05/09 06:07:39;;;;;;;26.90;23.40;;;17.10;99.90;;;;;;5011321;28;20482;-75
2023/05/09 06:10:06;;;;;;;25.10;22.60;;;17.30;99.90;;;;;;5008201;28;20235;-73
2023/05/09 06:12:32;;;;;;;30.80;25.07;;;17.30;99.90;;;;;;5014141;28;20407;-73
2023/05/09 06:14:58;;;;;;;30.33;25.93;;;17.10;99.90;;;;;;5014319;28;20430;-73
2023/05/09 06:17:23;;;;;;;27.27;24.57;;;17.10;99.90;;;;;;5026800;28;20558;-72
2023/05/09 06:19:49;;;;;;;26.70;23.23;;;17.30;99.90;;;;;;5009275;28;20195;-72
2023/05/09 06:22:15;;;;;;;26.27;21.00;;;17.30;99.90;;;;;;5008844;28;20176;-72
2023/05/09 06:24:40;;;;;;;27.87;25.13;;;17.40;99.90;;;;;;5009267;28;20693;-73
2023/05/09 06:27:06;;;;;;;23.60;21.07;;;17.50;99.90;;;;;;5008546;28;20203;-72
2023/05/09 06:29:32;;;;;;;22.63;20.33;;;17.50;99.90;;;;;;5008682;28;20310;-72
2023/05/09 06:31:57;;;;;;;22.00;19.60;;;17.20;99.90;;;;;;5009042;28;20180;-72
2023/05/09 06:34:23;;;;;;;25.00;22.60;;;17.30;99.90;;;;;;5007936;28;20168;-72
2023/05/09 06:36:48;;;;;;;25.23;22.80;;;17.60;99.90;;;;;;5009209;28;20561;-71
2023/05/09 06:39:14;;;;;;;28.63;25.57;;;17.60;99.90;;;;;;5008317;28;20199;-72
2023/05/09 06:41:39;;;;;;;23.90;21.27;;;17.20;99.90;;;;;;5009247;28;20172;-73
2023/05/09 06:44:05;;;;;;;23.97;21.37;;;17.30;99.90;;;;;;5008797;28;20179;-72
2023/05/09 06:46:31;;;;;;;22.13;19.90;;;17.50;99.90;;;;;;5008859;28;20202;-72
2023/05/09 06:48:56;;;;;;;24.23;21.73;;;17.30;99.90;;;;;;5007169;28;20909;-72
2023/05/09 06:51:22;;;;;;;23.17;20.70;;;17.60;99.90;;;;;;5008304;28;20172;-72
2023/05/09 06:53:47;;;;;;;23.60;21.20;;;17.60;99.90;;;;;;5008537;28;20176;-72
2023/05/09 06:56:13;;;;;;;21.00;18.80;;;17.90;99.90;;;;;;5008313;28;20182;-72
2023/05/09 06:58:39;;;;;;;24.37;21.93;;;18.20;99.90;;;;;;5008724;28;20279;-72
2023/05/09 07:01:04;;;;;;;21.00;18.90;;;18.10;99.90;;;;;;5007217;28;20278;-72
2023/05/09 07:03:30;;;;;;;24.07;21.07;;;18.40;99.90;;;;;;5008825;28;20184;-72
2023/05/09 07:05:57;;;;;;;22.70;19.40;;;18.50;99.90;;;;;;5007740;28;20200;-72
2023/05/09 07:08:23;;;;;;;24.30;21.77;;;18.70;99.90;;;;;;5008390;28;20553;-72
2023/05/09 07:10:49;;;;;;;22.13;20.03;;;18.60;99.90;;;;;;5007914;28;20518;-72
2023/05/09 07:13:15;;;;;;;22.70;20.30;;;18.70;99.90;;;;;;5007520;28;20702;-72
2023/05/09 07:15:40;;;;;;;27.00;22.13;;;18.80;99.90;;;;;;4990896;28;20176;-72
2023/05/09 07:18:06;;;;;;;23.27;20.97;;;18.70;99.90;;;;;;5007114;28;20218;-72
2023/05/09 07:20:32;;;;;;;21.70;19.60;;;19.00;99.90;;;;;;5008385;28;20191;-72
2023/05/09 07:22:57;;;;;;;20.67;18.67;;;19.30;99.90;;;;;;5008455;28;20547;-72
2023/05/09 07:25:23;;;;;;;20.83;18.73;;;19.20;99.90;;;;;;5007607;28;20200;-72
2023/05/09 07:27:48;;;;;;;21.17;18.90;;;19.40;99.90;;;;;;5008031;28;20168;-73
2023/05/09 07:30:14;;;;;;;22.07;19.67;;;19.40;99.90;;;;;;4988926;28;20200;-73
2023/05/09 07:32:40;;;;;;;22.27;19.60;;;19.40;99.90;;;;;;5008208;28;20204;-73
2023/05/09 07:35:06;;;;;;;23.03;19.70;;;19.50;99.90;;;;;;5008019;28;20179;-70
2023/05/09 07:37:31;;;;;;;20.53;18.53;;;19.40;99.90;;;;;;5008021;28;20200;-73
2023/05/09 07:39:57;;;;;;;20.83;18.70;;;19.20;99.90;;;;;;5007438;28;20235;-73
2023/05/09 07:42:22;;;;;;;22.80;20.60;;;19.20;99.90;;;;;;5008149;28;20183;-72
2023/05/09 07:44:48;;;;;;;23.10;20.87;;;19.20;99.90;;;;;;5007574;28;20184;-73
2023/05/09 07:47:13;;;;;;;21.23;19.03;;;19.20;99.90;;;;;;5009609;28;20203;-73
2023/05/09 07:49:42;;;;;;;22.60;20.17;;;19.30;99.90;;;;;;5007076;28;20204;-73
2023/05/09 07:52:07;;;;;;;22.40;20.07;;;19.30;99.90;;;;;;4989561;28;20632;-72
2023/05/09 07:54:33;;;;;;;21.03;18.70;;;19.50;99.90;;;;;;4990292;28;20413;-73
2023/05/09 07:56:58;;;;;;;19.97;18.10;;;19.60;99.90;;;;;;5008109;28;20339;-72
2023/05/09 07:59:24;;;;;;;19.27;17.20;;;19.80;99.90;;;;;;5007613;28;20199;-73
2023/05/09 08:01:50;;;;;;;19.83;17.87;;;19.50;99.90;;;;;;4989601;28;20180;-74
2023/05/09 08:04:15;;;;;;;18.13;16.33;;;19.50;99.90;;;;;;5006252;28;20700;-73
2023/05/09 08:06:41;;;;;;;16.57;14.97;;;19.50;99.90;;;;;;5007674;28;20206;-74
2023/05/09 08:09:06;;;;;;;18.23;16.40;;;19.70;99.90;;;;;;5007364;28;20229;-74
2023/05/09 08:11:33;;;;;;;17.97;16.10;;;19.70;99.90;;;;;;5006867;28;20733;-73
2023/05/09 08:13:59;;;;;;;16.33;14.73;;;19.80;99.90;;;;;;5007162;28;20262;-73
2023/05/09 08:16:24;;;;;;;17.83;15.93;;;20.00;99.90;;;;;;5007223;28;20984;-74
2023/05/09 08:18:50;;;;;;;18.30;16.30;;;19.90;99.90;;;;;;5008266;28;20182;-74
2023/05/09 08:21:16;;;;;;;18.27;16.20;;;19.70;99.90;;;;;;5007993;28;20201;-73
2023/05/09 08:23:41;;;;;;;18.90;16.60;;;19.50;99.90;;;;;;4990232;28;20241;-74
2023/05/09 08:26:07;;;;;;;16.67;15.03;;;19.50;99.90;;;;;;5007873;28;20254;-74
2023/05/09 08:28:32;;;;;;;16.53;14.83;;;19.60;99.90;;;;;;5007281;28;20180;-73
2023/05/09 08:30:58;;;;;;;18.10;15.37;;;19.40;99.90;;;;;;5007685;28;20298;-72
2023/05/09 08:33:23;;;;;;;17.03;15.33;;;19.40;99.90;;;;;;5007839;28;20187;-73
2023/05/09 08:35:50;;;;;;;19.67;17.57;;;19.50;99.90;;;;;;5007077;28;20609;-74
2023/05/09 08:38:16;;;;;;;16.77;15.10;;;19.50;99.90;;;;;;5007823;28;20180;-74
2023/05/09 08:40:41;;;;;;;18.73;16.97;;;19.70;99.90;;;;;;5009119;28;20828;-74
2023/05/09 08:43:07;;;;;;;19.80;17.80;;;19.80;99.90;;;;;;5011190;28;20172;-73
2023/05/09 08:45:37;;;;;;;21.10;19.00;;;20.10;99.90;;;;;;5011908;28;20194;-73
2023/05/09 08:48:03;;;;;;;18.50;16.60;;;20.10;99.90;;;;;;5011713;28;20195;-74
2023/05/09 08:50:28;;;;;;;17.53;15.83;;;20.00;99.90;;;;;;5011392;28;20441;-74
2023/05/09 08:52:55;;;;;;;18.90;17.00;;;20.40;99.90;;;;;;5011348;28;20914;-74
2023/05/09 08:55:20;;;;;;;15.83;14.20;;;20.60;99.90;;;;;;5011433;28;20258;-73
2023/05/09 08:57:47;;;;;;;20.20;17.27;;;21.00;99.90;;;;;;5011501;28;20885;-74
2023/05/09 09:00:13;;;;;;;19.20;17.30;;;20.80;99.90;;;;;;5011043;28;20184;-72
2023/05/09 09:02:43;;;;;;;20.93;18.13;;;20.90;99.90;;;;;;5010158;28;20395;-74
2023/05/09 09:05:09;;;;;;;20.37;18.43;;;21.10;99.90;;;;;;5010994;28;20399;-74
2023/05/09 09:07:36;;;;;;;18.43;16.73;;;20.90;99.90;;;;;;5010487;28;20464;-74
2023/05/09 09:10:03;;;;;;;18.00;16.20;;;21.00;99.90;;;;;;5011122;28;20422;-74
2023/05/09 09:12:28;;;;;;;16.10;14.60;;;21.10;99.90;;;;;;5010764;28;20425;-74
2023/05/09 09:14:55;;;;;;;16.43;14.93;;;21.40;99.90;;;;;;5010341;28;20949;-74
2023/05/09 09:17:26;;;;;;;19.00;17.10;;;21.90;99.90;;;;;;5009790;28;20183;-72
2023/05/09 09:19:55;;;;;;;19.43;16.23;;;21.80;99.90;;;;;;4993900;28;20444;-72
2023/05/09 09:22:21;;;;;;;16.83;15.23;;;21.60;99.90;;;;;;5010804;28;20415;-73
2023/05/09 09:24:47;;;;;;;17.83;16.03;;;21.70;99.90;;;;;;5011280;28;20407;-73
2023/05/09 09:27:13;;;;;;;17.10;14.80;;;21.50;99.90;;;;;;5010274;28;20449;-74
2023/05/09 09:29:38;;;;;;;17.17;15.47;;;21.70;99.90;;;;;;5009230;28;20275;-74
2023/05/09 09:32:05;;;;;;;16.03;14.43;;;21.70;99.90;;;;;;5010316;28;20176;-74
2023/05/09 09:34:31;;;;;;;16.80;15.10;;;21.80;99.90;;;;;;5010743;28;20172;-74
2023/05/09 09:36:57;;;;;;;15.20;13.70;;;21.90;99.90;;;;;;5010822;28;20411;-74
2023/05/09 09:39:23;;;;;;;16.90;15.30;;;21.90;99.90;;;;;;5009166;28;20199;-74
2023/05/09 09:41:48;;;;;;;15.13;13.73;;;21.50;99.90;;;;;;5009324;28;20876;-74
2023/05/09 09:44:19;;;;;;;14.87;13.50;;;21.60;99.90;;;;;;5009426;28;20288;-74
2023/05/09 09:46:52;;;;;;;14.43;13.03;;;21.90;99.90;;;;;;5010105;28;20196;-73
2023/05/09 09:49:25;;;;;;;14.60;13.20;;;22.20;99.90;;;;;;5009072;28;20423;-73
2023/05/09 09:51:52;;;;;;;12.70;11.60;;;22.90;99.90;;;;;;5008358;28;20951;-73
2023/05/09 09:54:18;;;;;;;15.20;13.77;;;22.90;99.90;;;;;;5010011;28;20945;-72
2023/05/09 09:56:46;;;;;;;13.07;11.93;;;23.00;99.90;;;;;;5010340;28;20490;-73
2023/05/09 09:59:15;;;;;;;13.13;11.93;;;22.70;99.90;;;;;;5009223;28;20222;-74
2023/05/09 10:01:58;;;;;;;15.30;13.90;;;22.80;99.90;;;;;;5009480;28;20457;-74
2023/05/09 10:04:25;;;;;;;15.07;13.50;;;22.70;99.90;;;;;;4992124;28;20423;-73
2023/05/09 10:06:56;;;;;;;12.80;11.60;;;22.40;99.90;;;;;;5008562;28;20439;-73
2023/05/09 10:09:25;;;;;;;15.77;13.70;;;22.50;99.90;;;;;;4991944;28;21068;-72
2023/05/09 10:11:53;;;;;;;13.03;11.93;;;22.20;99.90;;;;;;5008719;28;20406;-72
2023/05/09 10:14:23;;;;;;;14.00;12.80;;;22.30;99.90;;;;;;5009130;28;20423;-73
2023/05/09 10:16:50;;;;;;;14.77;13.37;;;21.90;99.90;;;;;;4992234;28;20968;-73
2023/05/09 10:19:21;;;;;;;16.67;15.00;;;22.30;99.90;;;;;;5009257;28;20956;-73
2023/05/09 10:21:55;;;;;;;15.40;13.80;;;22.40;99.90;;;;;;5009228;28;20414;-73
2023/05/09 10:24:45;;;;;;;13.87;12.57;;;22.50;99.90;;;;;;5008793;28;20414;-73
2023/05/09 10:27:11;;;;;;;13.40;12.10;;;22.70;99.90;;;;;;5008838;28;20518;-72
2023/05/09 10:29:43;;;;;;;13.80;12.50;;;23.00;99.90;;;;;;5009686;28;20800;-73
2023/05/09 10:32:19;;;;;;;16.50;14.97;;;22.80;99.90;;;;;;5008378;28;20399;-73
2023/05/09 10:34:50;;;;;;;14.50;13.20;;;22.70;99.90;;;;;;5008450;28;20398;-73
2023/05/09 10:37:16;;;;;;;15.17;13.67;;;22.90;99.90;;;;;;5006916;28;20411;-73
2023/05/09 10:39:42;;;;;;;15.97;14.47;;;22.50;99.90;;;;;;5033775;23;20450;-68
2023/05/09 10:42:08;;;;;;;15.93;14.53;;;22.40;99.90;;;;;;5029813;28;20210;-69
2023/05/09 10:44:34;;;;;;;15.07;13.47;;;22.40;99.90;;;;;;5029898;28;20433;-68
2023/05/09 10:47:01;;;;;;;15.10;13.70;;;22.70;99.90;;;;;;5029288;28;20226;-69
2023/05/09 10:49:27;;;;;;;16.03;14.53;;;23.10;99.90;;;;;;5030237;28;20432;-69
2023/05/09 10:51:53;;;;;;;16.63;14.70;;;23.70;99.90;;;;;;5029993;28;20406;-69
2023/05/09 10:54:27;;;;;;;13.60;12.30;;;24.00;99.90;;;;;;5031526;28;20453;-69
2023/05/09 10:56:53;;;;;;;13.90;12.60;;;23.70;99.90;;;;;;5031620;28;20167;-69
2023/05/09 10:59:33;;;;;;;15.10;13.70;;;24.00;99.90;;;;;;5032871;28;20503;-69
2023/05/09 11:02:01;;;;;;;18.60;13.70;;;24.30;99.90;;;;;;5042309;28;20421;-69
2023/05/09 11:04:27;;;;;;;15.60;14.10;;;24.40;99.90;;;;;;5046156;28;21155;-69
2023/05/09 11:06:53;;;;;;;13.07;11.87;;;24.30;99.90;;;;;;5034649;28;20473;-69
2023/05/09 11:09:31;;;;;;;14.63;13.23;;;24.20;99.90;;;;;;5030021;28;20179;-68
2023/05/09 11:12:04;;;;;;;13.40;12.03;;;24.40;99.90;;;;;;5025874;28;20196;-68
2023/05/09 11:14:42;;;;;;;13.43;11.90;;;25.00;99.90;;;;;;5030834;28;20410;-69
2023/05/09 11:17:12;;;;;;;12.80;11.60;;;25.10;99.90;;;;;;5047313;28;20421;-69
2023/05/09 11:19:58;;;;;;;11.33;10.27;;;25.60;99.90;;;;;;5053961;28;20394;-68
2023/05/09 11:22:26;;;;;;;11.17;10.07;;;25.50;99.90;;;;;;5055334;28;20408;-70
2023/05/09 11:25:03;;;;;;;11.37;10.27;;;25.50;99.90;;;;;;5053407;28;20544;-69
2023/05/09 11:27:39;;;;;;;10.57;9.53;;;25.70;99.90;;;;;;5049499;28;20514;-70
2023/05/09 11:30:06;;;;;;;9.00;7.87;;;26.40;99.80;;;;;;5035235;28;20509;-69
2023/05/09 11:32:39;;;;;;;7.63;6.93;;;25.70;99.60;;;;;;5033990;28;20403;-68
2023/05/09 11:35:32;;;;;;;7.30;6.60;;;26.20;99.90;;;;;;5033316;28;20402;-68
2023/05/09 11:38:04;;;;;;;9.53;7.50;;;26.60;99.00;;;;;;5029191;28;20504;-68
2023/05/09 11:40:31;;;;;;;8.20;7.40;;;26.90;98.40;;;;;;5033119;28;21255;-68
2023/05/09 11:42:58;;;;;;;7.43;6.77;;;27.10;98.30;;;;;;5033709;28;20410;-68
2023/05/09 11:45:28;;;;;;;5.90;5.40;;;27.90;97.00;;;;;;5033418;28;20934;-68
2023/05/09 11:47:55;;;;;;;6.20;5.50;;;27.80;97.10;;;;;;5014764;28;20466;-68
2023/05/09 11:50:21;;;;;;;5.30;4.90;;;28.20;96.50;;;;;;5033332;28;20479;-69
2023/05/09 11:52:48;;;;;;;5.70;5.20;;;28.50;95.10;;;;;;5033529;28;20481;-69
2023/05/09 11:55:16;;;;;;;5.27;4.83;;;28.20;96.10;;;;;;5032239;28;20183;-69
2023/05/09 11:57:49;;;;;;;5.13;4.70;;;29.00;94.40;;;;;;5027223;28;20797;-69
2023/05/09 12:00:18;;;;;;;4.00;3.60;;;29.30;94.00;;;;;;5009689;28;20557;-69
2023/05/09 12:02:45;;;;;;;4.70;4.30;;;29.20;92.10;;;;;;5026156;28;20414;-68
2023/05/09 12:05:13;;;;;;;3.73;3.40;;;29.20;91.80;;;;;;5026799;28;20402;-69
2023/05/09 12:07:39;;;;;;;3.30;3.03;;;29.60;91.70;;;;;;5027390;28;20402;-69
2023/05/09 12:10:07;;;;;;;3.93;3.20;;;30.30;90.70;;;;;;5027374;28;20507;-68
2023/05/09 12:12:34;;;;;;;4.73;3.80;;;29.20;90.70;;;;;;5026736;28;20436;-70
2023/05/09 12:15:06;;;;;;;4.17;3.87;;;29.00;91.10;;;;;;5026665;28;20418;-70
2023/05/09 12:17:32;;;;;;;5.87;3.93;;;29.20;90.80;;;;;;5027690;28;20912;-69
2023/05/09 12:19:59;;;;;;;4.50;3.70;;;28.50;93.70;;;;;;5026599;28;20440;-69
2023/05/09 12:22:26;;;;;;;4.00;3.43;;;28.90;91.90;;;;;;5027038;28;20496;-69
2023/05/09 12:24:53;;;;;;;4.10;3.80;;;28.70;91.60;;;;;;5026586;28;20438;-70
2023/05/09 12:27:19;;;;;;;3.87;3.50;;;28.70;91.60;;;;;;5026738;28;20433;-69
2023/05/09 12:29:47;;;;;;;3.83;3.53;;;29.30;91.10;;;;;;5026538;28;20492;-69